This is the latest recevied weather packets stored in our database for station/object OZ0AJ-13. If no packets are shown the sender has not sent any weather packets the latest 1 day(s).
| Time | Temp. | Humidity | Pressure | Rain* | Wind** | Luminosity | Snow |
|---|---|---|---|---|---|---|---|
| 1778112924 | 7.78° C | 64% | 1013.5 hPa | 0 mm | - | - | - |
| 1778112320 | 7.78° C | 64% | 1013.4 hPa | 0 mm | - | - | - |
| 1778110527 | 7.78° C | 65% | 1013.3 hPa | 0 mm | - | - | - |
| 1778109923 | 7.78° C | 65% | 1013.3 hPa | 0 mm | - | - | - |
| 1778107526 | 8.33° C | 64% | 1013.2 hPa | 0 mm | - | - | - |
| 1778105733 | 8.33° C | 64% | 1013.1 hPa | 0 mm | - | - | - |
| 1778101522 | 8.89° C | 67% | 1012.8 hPa | 0 mm | - | - | - |
| 1778096728 | 9.44° C | 67% | 1012.2 hPa | 0 mm | - | - | - |
| 1778094331 | 9.44° C | 66% | 1011.8 hPa | 0 mm | - | - | - |
| 1778091935 | 10° C | 64% | 1011.5 hPa | 0 mm | - | - | - |
| 1778090122 | 10.56° C | 62% | 1011.4 hPa | 0 mm | - | - | - |
| 1778089518 | 10.56° C | 61% | 1011.4 hPa | 0 mm | - | - | - |
| 1778088934 | 11.11° C | 59% | 1011.3 hPa | 0 mm | - | - | - |
| 1778085933 | 11.67° C | 57% | 1011.1 hPa | 0 mm | - | - | - |
| 1778085329 | 12.22° C | 57% | 1011.1 hPa | 0 mm | - | - | - |
| 1778084725 | 12.78° C | 56% | 1011.1 hPa | 0 mm | - | - | - |
| 1778084121 | 12.78° C | 55% | 1010.9 hPa | 0 mm | - | - | - |
| 1778081120 | 13.89° C | 53% | 1011 hPa | 0 mm | - | - | - |
| 1778079932 | 14.44° C | 52% | 1010.8 hPa | 0 mm | - | - | - |
| 1778076327 | 15.56° C | 49% | 1010.8 hPa | 0 mm | - | - | - |
| 1778073326 | 17.22° C | 42% | 1010.8 hPa | 0 mm | - | - | - |
| 1778072722 | 18.33° C | 40% | 1011 hPa | 0 mm | - | - | - |
| 1778069721 | 16.11° C | 46% | 1011 hPa | 0 mm | - | - | - |
| 1778069117 | 15° C | 48% | 1011.1 hPa | 0 mm | - | - | - |
| 1778066116 | 13.33° C | 52% | 1011.2 hPa | 0 mm | - | - | - |
* Rain latest hour (hover to see other rain measurements)
** Current wind speed in m/s (hover to see current wind gust speed)